KRKR/RKR METAR and TAF weather

Enter ICAO airport designator
Station Type Date Time Source
KRKR METAR 2020/03/31 13:15 UTC NOAA

KRKR 311315Z AUTO 35009KT 10SM OVC048 10/08 A3002 RMK AO2


Station Type Date Time Source
KRKR Decoded METAR 2020/03/31 13:15 UTC NOAA

Poteau, Robert S Kerr Airport, OK, United States (KRKR) 35-01-18N 094-37-17W
Mar 31, 2020 - 09:15 AM EDT / 2020.03.31 1315 UTC
Wind: from the N (350 degrees) at 10 MPH (9 KT):0
Visibility: 10 mile(s):0
Sky conditions: overcast
Temperature: 50 F (10 C)
Dew Point: 46 F (8 C)
Relative Humidity: 87%
Pressure (altimeter): 30.02 in. Hg (1016 hPa)
ob: KRKR 311315Z AUTO 35009KT 10SM OVC048 10/08 A3002 RMK AO2
cycle: 13

Station Type Date Time Source
KRKR TAF UTC NOAA

Error!

Example: see airport list